sensor_id;sensor_type;location;lat;lon;timestamp;pressure;altitude;pressure_sealevel;temperature;humidity
66381;BME280;53177;52.648;1.214;2023-06-22T00:02:12;101346.88;;;19.74;78.64
66381;BME280;53177;52.648;1.214;2023-06-22T00:04:38;101347.69;;;19.76;78.20
66381;BME280;53177;52.648;1.214;2023-06-22T00:07:03;101342.19;;;19.43;79.14
66381;BME280;53177;52.648;1.214;2023-06-22T00:09:28;101335.22;;;18.65;84.68
66381;BME280;53177;52.648;1.214;2023-06-22T00:11:54;101333.56;;;18.62;84.85
66381;BME280;53177;52.648;1.214;2023-06-22T00:14:19;101338.47;;;18.32;86.76
66381;BME280;53177;52.648;1.214;2023-06-22T00:16:45;101350.50;;;18.42;85.39
66381;BME280;53177;52.648;1.214;2023-06-22T00:19:16;101348.63;;;18.65;83.88
66381;BME280;53177;52.648;1.214;2023-06-22T00:21:44;101347.97;;;18.78;83.07
66381;BME280;53177;52.648;1.214;2023-06-22T00:24:12;101352.19;;;19.03;82.47
66381;BME280;53177;52.648;1.214;2023-06-22T00:26:37;101350.66;;;19.16;81.14
66381;BME280;53177;52.648;1.214;2023-06-22T00:29:03;101351.94;;;19.26;80.73
66381;BME280;53177;52.648;1.214;2023-06-22T00:31:28;101359.41;;;19.19;80.73
66381;BME280;53177;52.648;1.214;2023-06-22T00:33:53;101355.09;;;19.17;80.98
66381;BME280;53177;52.648;1.214;2023-06-22T00:36:19;101359.72;;;18.94;81.82
66381;BME280;53177;52.648;1.214;2023-06-22T00:38:44;101353.97;;;18.65;83.27
66381;BME280;53177;52.648;1.214;2023-06-22T00:41:09;101347.06;;;18.59;83.54
66381;BME280;53177;52.648;1.214;2023-06-22T00:43:35;101349.41;;;18.67;83.26
66381;BME280;53177;52.648;1.214;2023-06-22T00:46:00;101358.53;;;18.81;82.78
66381;BME280;53177;52.648;1.214;2023-06-22T00:48:26;101348.31;;;18.71;83.13
66381;BME280;53177;52.648;1.214;2023-06-22T00:50:52;101340.72;;;18.62;83.30
66381;BME280;53177;52.648;1.214;2023-06-22T00:53:18;101343.16;;;18.27;85.19
66381;BME280;53177;52.648;1.214;2023-06-22T00:55:44;101350.00;;;18.14;86.07
66381;BME280;53177;52.648;1.214;2023-06-22T00:58:16;101345.91;;;18.06;86.01
66381;BME280;53177;52.648;1.214;2023-06-22T01:00:42;101349.72;;;18.20;85.64
66381;BME280;53177;52.648;1.214;2023-06-22T01:03:08;101348.94;;;18.37;84.93
66381;BME280;53177;52.648;1.214;2023-06-22T01:05:34;101352.66;;;18.34;85.03
66381;BME280;53177;52.648;1.214;2023-06-22T01:10:54;101349.50;;;17.84;87.62
66381;BME280;53177;52.648;1.214;2023-06-22T01:16:05;101339.63;;;17.21;92.53
66381;BME280;53177;52.648;1.214;2023-06-22T01:18:35;101338.16;;;16.91;94.79
66381;BME280;53177;52.648;1.214;2023-06-22T01:21:03;101339.53;;;16.78;96.53
66381;BME280;53177;52.648;1.214;2023-06-22T01:24:22;101329.72;;;16.78;97.04
66381;BME280;53177;52.648;1.214;2023-06-22T01:29:04;101343.41;;;16.92;97.73
66381;BME280;53177;52.648;1.214;2023-06-22T01:31:31;101347.94;;;16.92;97.89
66381;BME280;53177;52.648;1.214;2023-06-22T01:34:00;101350.22;;;16.78;99.12
66381;BME280;53177;52.648;1.214;2023-06-22T01:36:26;101345.41;;;16.64;99.90
66381;BME280;53177;52.648;1.214;2023-06-22T01:38:53;101349.69;;;16.70;100.00
66381;BME280;53177;52.648;1.214;2023-06-22T01:41:24;101350.97;;;17.04;97.17
66381;BME280;53177;52.648;1.214;2023-06-22T01:43:50;101347.22;;;17.32;93.73
66381;BME280;53177;52.648;1.214;2023-06-22T01:46:17;101347.19;;;17.53;92.50
66381;BME280;53177;52.648;1.214;2023-06-22T01:48:45;101350.16;;;17.69;91.29
66381;BME280;53177;52.648;1.214;2023-06-22T01:51:11;101353.25;;;17.80;90.47
66381;BME280;53177;52.648;1.214;2023-06-22T01:53:37;101351.97;;;17.89;89.50
66381;BME280;53177;52.648;1.214;2023-06-22T01:56:03;101366.16;;;17.91;88.27
66381;BME280;53177;52.648;1.214;2023-06-22T01:58:29;101356.84;;;17.36;90.29
66381;BME280;53177;52.648;1.214;2023-06-22T02:01:11;101356.69;;;16.72;94.60
66381;BME280;53177;52.648;1.214;2023-06-22T02:03:42;101370.81;;;16.51;97.03
66381;BME280;53177;52.648;1.214;2023-06-22T02:06:17;101363.47;;;16.58;96.82
66381;BME280;53177;52.648;1.214;2023-06-22T02:08:49;101352.97;;;16.76;95.45
66381;BME280;53177;52.648;1.214;2023-06-22T02:11:18;101355.53;;;17.02;93.90
66381;BME280;53177;52.648;1.214;2023-06-22T02:13:45;101354.97;;;17.16;93.08
66381;BME280;53177;52.648;1.214;2023-06-22T02:16:11;101356.53;;;17.22;92.50
66381;BME280;53177;52.648;1.214;2023-06-22T02:18:38;101351.19;;;17.22;92.02
66381;BME280;53177;52.648;1.214;2023-06-22T02:21:05;101357.69;;;17.15;92.33
66381;BME280;53177;52.648;1.214;2023-06-22T02:23:31;101352.56;;;17.32;91.99
66381;BME280;53177;52.648;1.214;2023-06-22T02:25:58;101358.34;;;17.21;91.88
66381;BME280;53177;52.648;1.214;2023-06-22T02:28:23;101360.59;;;17.32;91.89
66381;BME280;53177;52.648;1.214;2023-06-22T02:30:49;101365.66;;;17.38;90.50
66381;BME280;53177;52.648;1.214;2023-06-22T02:33:14;101354.22;;;17.34;90.31
66381;BME280;53177;52.648;1.214;2023-06-22T02:35:39;101352.16;;;17.41;90.21
66381;BME280;53177;52.648;1.214;2023-06-22T02:38:05;101362.81;;;17.42;89.40
66381;BME280;53177;52.648;1.214;2023-06-22T02:40:31;101356.34;;;17.48;89.00
66381;BME280;53177;52.648;1.214;2023-06-22T02:42:57;101358.34;;;17.43;88.85
66381;BME280;53177;52.648;1.214;2023-06-22T02:45:27;101360.75;;;17.27;89.79
66381;BME280;53177;52.648;1.214;2023-06-22T02:47:52;101362.38;;;17.31;89.83
66381;BME280;53177;52.648;1.214;2023-06-22T02:50:18;101366.06;;;17.29;89.56
66381;BME280;53177;52.648;1.214;2023-06-22T02:52:50;101363.25;;;17.10;90.07
66381;BME280;53177;52.648;1.214;2023-06-22T02:55:18;101358.44;;;16.73;92.87
66381;BME280;53177;52.648;1.214;2023-06-22T02:57:52;101358.59;;;16.69;93.39
66381;BME280;53177;52.648;1.214;2023-06-22T03:00:23;101360.00;;;16.54;95.52
66381;BME280;53177;52.648;1.214;2023-06-22T03:03:01;101361.66;;;16.33;97.97
66381;BME280;53177;52.648;1.214;2023-06-22T03:05:35;101346.88;;;16.25;99.25
66381;BME280;53177;52.648;1.214;2023-06-22T03:08:07;101352.31;;;16.22;99.73
66381;BME280;53177;52.648;1.214;2023-06-22T03:10:53;101348.88;;;16.18;99.98
66381;BME280;53177;52.648;1.214;2023-06-22T03:13:20;101345.38;;;16.16;100.00
66381;BME280;53177;52.648;1.214;2023-06-22T03:15:49;101343.75;;;16.12;100.00
66381;BME280;53177;52.648;1.214;2023-06-22T03:18:17;101344.78;;;16.08;100.00
66381;BME280;53177;52.648;1.214;2023-06-22T03:20:43;101347.72;;;16.00;100.00
66381;BME280;53177;52.648;1.214;2023-06-22T03:23:08;101353.06;;;16.00;100.00
66381;BME280;53177;52.648;1.214;2023-06-22T03:25:34;101350.03;;;16.11;100.00
66381;BME280;53177;52.648;1.214;2023-06-22T03:28:00;101349.63;;;16.46;99.49
66381;BME280;53177;52.648;1.214;2023-06-22T03:30:26;101355.97;;;16.67;97.97
66381;BME280;53177;52.648;1.214;2023-06-22T03:32:51;101350.47;;;16.72;95.91
66381;BME280;53177;52.648;1.214;2023-06-22T03:35:16;101348.44;;;16.78;95.21
66381;BME280;53177;52.648;1.214;2023-06-22T03:37:42;101349.38;;;16.77;95.19
66381;BME280;53177;52.648;1.214;2023-06-22T03:40:07;101345.59;;;16.35;96.68
66381;BME280;53177;52.648;1.214;2023-06-22T03:42:34;101348.66;;;16.24;97.81
66381;BME280;53177;52.648;1.214;2023-06-22T03:45:01;101347.44;;;16.08;99.29
66381;BME280;53177;52.648;1.214;2023-06-22T03:47:26;101345.75;;;16.30;98.02
66381;BME280;53177;52.648;1.214;2023-06-22T03:49:52;101344.78;;;16.58;96.16
66381;BME280;53177;52.648;1.214;2023-06-22T03:52:20;101348.44;;;16.78;94.46
66381;BME280;53177;52.648;1.214;2023-06-22T03:54:46;101354.53;;;16.82;93.36
66381;BME280;53177;52.648;1.214;2023-06-22T03:57:11;101351.81;;;16.83;93.38
66381;BME280;53177;52.648;1.214;2023-06-22T03:59:37;101356.22;;;16.84;92.81
66381;BME280;53177;52.648;1.214;2023-06-22T04:02:02;101358.78;;;16.87;92.77
66381;BME280;53177;52.648;1.214;2023-06-22T04:04:28;101359.06;;;16.80;92.40
66381;BME280;53177;52.648;1.214;2023-06-22T04:06:53;101361.78;;;16.55;93.40
66381;BME280;53177;52.648;1.214;2023-06-22T04:09:18;101365.41;;;16.52;93.67
66381;BME280;53177;52.648;1.214;2023-06-22T04:11:44;101356.31;;;16.33;95.26
66381;BME280;53177;52.648;1.214;2023-06-22T04:14:09;101357.25;;;16.32;95.36
66381;BME280;53177;52.648;1.214;2023-06-22T04:16:34;101360.81;;;16.33;95.38
66381;BME280;53177;52.648;1.214;2023-06-22T04:19:00;101351.09;;;16.30;95.47
66381;BME280;53177;52.648;1.214;2023-06-22T04:21:25;101345.63;;;16.10;98.00
66381;BME280;53177;52.648;1.214;2023-06-22T04:23:51;101345.03;;;16.00;98.78
66381;BME280;53177;52.648;1.214;2023-06-22T04:26:16;101334.91;;;16.35;96.69
66381;BME280;53177;52.648;1.214;2023-06-22T04:28:41;101336.31;;;16.45;96.06
66381;BME280;53177;52.648;1.214;2023-06-22T04:31:07;101341.72;;;16.43;95.47
66381;BME280;53177;52.648;1.214;2023-06-22T04:33:32;101339.66;;;16.27;97.29
66381;BME280;53177;52.648;1.214;2023-06-22T04:35:58;101338.41;;;16.12;99.01
66381;BME280;53177;52.648;1.214;2023-06-22T04:38:26;101354.00;;;15.99;100.00
66381;BME280;53177;52.648;1.214;2023-06-22T04:40:51;101343.69;;;15.89;100.00
66381;BME280;53177;52.648;1.214;2023-06-22T04:43:18;101347.06;;;15.94;100.00
66381;BME280;53177;52.648;1.214;2023-06-22T04:45:44;101349.53;;;16.25;100.00
66381;BME280;53177;52.648;1.214;2023-06-22T04:48:09;101349.72;;;16.43;98.68
66381;BME280;53177;52.648;1.214;2023-06-22T04:50:36;101343.91;;;16.32;99.09
66381;BME280;53177;52.648;1.214;2023-06-22T04:53:04;101342.69;;;16.41;99.13
66381;BME280;53177;52.648;1.214;2023-06-22T04:55:31;101335.72;;;16.62;97.89
66381;BME280;53177;52.648;1.214;2023-06-22T04:57:56;101338.94;;;16.46;98.23
66381;BME280;53177;52.648;1.214;2023-06-22T05:00:30;101342.06;;;16.59;97.90
66381;BME280;53177;52.648;1.214;2023-06-22T05:02:56;101347.28;;;16.62;97.04
66381;BME280;53177;52.648;1.214;2023-06-22T05:05:23;101349.56;;;16.48;98.51
66381;BME280;53177;52.648;1.214;2023-06-22T05:07:50;101362.59;;;16.57;96.81
66381;BME280;53177;52.648;1.214;2023-06-22T05:10:18;101354.97;;;16.46;97.33
66381;BME280;53177;52.648;1.214;2023-06-22T05:12:44;101350.34;;;16.27;99.51
66381;BME280;53177;52.648;1.214;2023-06-22T05:15:10;101358.97;;;16.33;99.36
66381;BME280;53177;52.648;1.214;2023-06-22T05:17:36;101355.69;;;16.51;98.20
66381;BME280;53177;52.648;1.214;2023-06-22T05:20:06;101358.66;;;16.42;99.45
66381;BME280;53177;52.648;1.214;2023-06-22T05:22:32;101358.19;;;16.31;100.00
66381;BME280;53177;52.648;1.214;2023-06-22T05:24:57;101344.69;;;16.36;100.00
66381;BME280;53177;52.648;1.214;2023-06-22T05:27:23;101356.78;;;16.44;97.38
66381;BME280;53177;52.648;1.214;2023-06-22T05:29:48;101348.78;;;16.44;100.00
66381;BME280;53177;52.648;1.214;2023-06-22T05:32:13;101353.72;;;16.57;99.66
66381;BME280;53177;52.648;1.214;2023-06-22T05:34:39;101362.91;;;16.73;98.89
66381;BME280;53177;52.648;1.214;2023-06-22T05:37:05;101354.78;;;16.76;99.33
66381;BME280;53177;52.648;1.214;2023-06-22T05:39:31;101366.34;;;16.76;98.02
66381;BME280;53177;52.648;1.214;2023-06-22T05:41:56;101364.16;;;16.86;99.01
66381;BME280;53177;52.648;1.214;2023-06-22T05:44:22;101363.13;;;16.90;98.26
66381;BME280;53177;52.648;1.214;2023-06-22T05:46:47;101368.34;;;16.93;99.09
66381;BME280;53177;52.648;1.214;2023-06-22T05:49:14;101369.63;;;17.06;97.92
66381;BME280;53177;52.648;1.214;2023-06-22T05:51:40;101366.97;;;17.06;96.01
66381;BME280;53177;52.648;1.214;2023-06-22T05:54:05;101377.66;;;17.06;94.26
66381;BME280;53177;52.648;1.214;2023-06-22T05:56:31;101370.88;;;17.19;96.45
66381;BME280;53177;52.648;1.214;2023-06-22T05:58:56;101374.25;;;17.24;97.29
66381;BME280;53177;52.648;1.214;2023-06-22T06:01:21;101369.69;;;17.26;97.94
66381;BME280;53177;52.648;1.214;2023-06-22T06:03:47;101367.84;;;17.28;98.46
66381;BME280;53177;52.648;1.214;2023-06-22T06:06:15;101380.09;;;17.34;97.13
66381;BME280;53177;52.648;1.214;2023-06-22T06:08:41;101381.34;;;17.47;96.32
66381;BME280;53177;52.648;1.214;2023-06-22T06:11:06;101391.84;;;17.51;97.65
66381;BME280;53177;52.648;1.214;2023-06-22T06:13:32;101392.22;;;17.66;97.46
66381;BME280;53177;52.648;1.214;2023-06-22T06:15:57;101382.00;;;17.75;97.11
66381;BME280;53177;52.648;1.214;2023-06-22T06:18:24;101380.13;;;17.77;93.95
66381;BME280;53177;52.648;1.214;2023-06-22T06:20:49;101382.03;;;17.95;93.92
66381;BME280;53177;52.648;1.214;2023-06-22T06:23:14;101374.47;;;18.05;94.27
66381;BME280;53177;52.648;1.214;2023-06-22T06:25:40;101374.72;;;18.19;95.66
66381;BME280;53177;52.648;1.214;2023-06-22T06:28:05;101369.13;;;18.25;95.11
66381;BME280;53177;52.648;1.214;2023-06-22T06:30:31;101365.63;;;18.23;94.75
66381;BME280;53177;52.648;1.214;2023-06-22T06:32:57;101366.31;;;18.28;94.55
66381;BME280;53177;52.648;1.214;2023-06-22T06:35:22;101368.03;;;18.29;95.14
66381;BME280;53177;52.648;1.214;2023-06-22T06:37:49;101376.88;;;18.31;95.12
66381;BME280;53177;52.648;1.214;2023-06-22T06:40:16;101382.09;;;18.34;93.82
66381;BME280;53177;52.648;1.214;2023-06-22T06:42:48;101385.16;;;18.45;94.20
66381;BME280;53177;52.648;1.214;2023-06-22T06:45:19;101379.69;;;18.48;93.56
66381;BME280;53177;52.648;1.214;2023-06-22T06:47:45;101377.63;;;18.55;93.73
66381;BME280;53177;52.648;1.214;2023-06-22T06:50:12;101376.28;;;18.65;92.66
66381;BME280;53177;52.648;1.214;2023-06-22T06:52:38;101383.16;;;18.71;92.47
66381;BME280;53177;52.648;1.214;2023-06-22T06:55:03;101388.31;;;18.75;91.25
66381;BME280;53177;52.648;1.214;2023-06-22T06:57:35;101390.50;;;18.86;91.81
66381;BME280;53177;52.648;1.214;2023-06-22T07:00:06;101394.72;;;18.91;90.15
66381;BME280;53177;52.648;1.214;2023-06-22T07:02:35;101389.22;;;18.94;88.50
66381;BME280;53177;52.648;1.214;2023-06-22T07:05:01;101394.94;;;19.06;90.67
66381;BME280;53177;52.648;1.214;2023-06-22T07:07:29;101393.56;;;19.16;90.72
66381;BME280;53177;52.648;1.214;2023-06-22T07:09:55;101393.13;;;19.25;89.79
66381;BME280;53177;52.648;1.214;2023-06-22T07:12:20;101396.06;;;19.37;87.27
66381;BME280;53177;52.648;1.214;2023-06-22T07:14:46;101391.31;;;19.44;88.20
66381;BME280;53177;52.648;1.214;2023-06-22T07:17:11;101399.72;;;19.55;88.22
66381;BME280;53177;52.648;1.214;2023-06-22T07:19:36;101398.06;;;19.53;86.70
66381;BME280;53177;52.648;1.214;2023-06-22T07:22:02;101397.09;;;19.72;85.84
66381;BME280;53177;52.648;1.214;2023-06-22T07:24:27;101387.78;;;19.79;86.74
66381;BME280;53177;52.648;1.214;2023-06-22T07:26:53;101385.00;;;19.81;81.96
66381;BME280;53177;52.648;1.214;2023-06-22T07:29:21;101391.72;;;19.89;82.52
66381;BME280;53177;52.648;1.214;2023-06-22T07:31:50;101387.88;;;19.95;82.66
66381;BME280;53177;52.648;1.214;2023-06-22T07:34:17;101392.88;;;20.03;82.88
66381;BME280;53177;52.648;1.214;2023-06-22T07:36:43;101387.81;;;20.14;80.98
66381;BME280;53177;52.648;1.214;2023-06-22T07:39:09;101385.19;;;20.12;79.87
66381;BME280;53177;52.648;1.214;2023-06-22T07:41:34;101382.56;;;20.11;80.81
66381;BME280;53177;52.648;1.214;2023-06-22T07:43:59;101374.44;;;20.12;80.76
66381;BME280;53177;52.648;1.214;2023-06-22T07:46:25;101373.59;;;20.29;82.19
66381;BME280;53177;52.648;1.214;2023-06-22T07:48:50;101372.06;;;20.40;81.22
66381;BME280;53177;52.648;1.214;2023-06-22T07:51:16;101376.28;;;20.46;80.18
66381;BME280;53177;52.648;1.214;2023-06-22T07:53:42;101370.56;;;20.52;79.43
66381;BME280;53177;52.648;1.214;2023-06-22T07:56:11;101377.19;;;20.62;80.37
66381;BME280;53177;52.648;1.214;2023-06-22T07:58:36;101374.19;;;20.68;77.94
66381;BME280;53177;52.648;1.214;2023-06-22T08:01:02;101365.53;;;20.79;79.37
66381;BME280;53177;52.648;1.214;2023-06-22T08:03:28;101368.56;;;20.88;77.97
66381;BME280;53177;52.648;1.214;2023-06-22T08:05:53;101376.22;;;20.96;76.93
66381;BME280;53177;52.648;1.214;2023-06-22T08:08:19;101365.28;;;20.99;74.75
66381;BME280;53177;52.648;1.214;2023-06-22T08:10:44;101367.00;;;21.17;76.08
66381;BME280;53177;52.648;1.214;2023-06-22T08:13:10;101366.66;;;21.23;75.34
66381;BME280;53177;52.648;1.214;2023-06-22T08:15:35;101363.16;;;21.37;73.65
66381;BME280;53177;52.648;1.214;2023-06-22T08:18:00;101370.91;;;21.43;73.11
66381;BME280;53177;52.648;1.214;2023-06-22T08:20:26;101360.84;;;21.47;71.95
66381;BME280;53177;52.648;1.214;2023-06-22T08:22:53;101357.50;;;21.57;73.52
66381;BME280;53177;52.648;1.214;2023-06-22T08:25:19;101359.13;;;21.75;72.33
66381;BME280;53177;52.648;1.214;2023-06-22T08:27:46;101359.34;;;22.02;71.80
66381;BME280;53177;52.648;1.214;2023-06-22T08:30:13;101363.56;;;22.06;71.90
66381;BME280;53177;52.648;1.214;2023-06-22T08:32:38;101360.81;;;22.22;69.76
66381;BME280;53177;52.648;1.214;2023-06-22T08:35:04;101364.00;;;22.28;68.67
66381;BME280;53177;52.648;1.214;2023-06-22T08:37:31;101353.63;;;22.37;67.89
66381;BME280;53177;52.648;1.214;2023-06-22T08:40:01;101358.88;;;22.54;68.68
66381;BME280;53177;52.648;1.214;2023-06-22T08:42:27;101351.34;;;22.59;67.00
66381;BME280;53177;52.648;1.214;2023-06-22T08:44:52;101355.59;;;22.63;67.45
66381;BME280;53177;52.648;1.214;2023-06-22T08:47:19;101355.38;;;22.66;68.18
66381;BME280;53177;52.648;1.214;2023-06-22T08:49:45;101362.94;;;22.89;66.36
66381;BME280;53177;52.648;1.214;2023-06-22T08:52:10;101366.41;;;23.05;66.37
66381;BME280;53177;52.648;1.214;2023-06-22T08:54:35;101368.31;;;23.03;63.02
66381;BME280;53177;52.648;1.214;2023-06-22T08:57:02;101361.63;;;23.23;63.63
66381;BME280;53177;52.648;1.214;2023-06-22T08:59:27;101362.34;;;23.12;63.22
66381;BME280;53177;52.648;1.214;2023-06-22T09:01:53;101364.50;;;23.34;61.66
66381;BME280;53177;52.648;1.214;2023-06-22T09:04:18;101353.41;;;23.65;61.52
66381;BME280;53177;52.648;1.214;2023-06-22T09:06:43;101354.75;;;23.72;61.58
66381;BME280;53177;52.648;1.214;2023-06-22T09:09:12;101359.44;;;23.83;61.73
66381;BME280;53177;52.648;1.214;2023-06-22T09:11:38;101352.31;;;23.95;58.78
66381;BME280;53177;52.648;1.214;2023-06-22T09:14:03;101358.03;;;24.30;60.98
66381;BME280;53177;52.648;1.214;2023-06-22T09:16:29;101365.84;;;24.72;58.34
66381;BME280;53177;52.648;1.214;2023-06-22T09:18:55;101370.28;;;24.48;58.38
66381;BME280;53177;52.648;1.214;2023-06-22T09:21:20;101376.09;;;24.29;57.90
66381;BME280;53177;52.648;1.214;2023-06-22T09:23:46;101373.09;;;24.46;62.06
66381;BME280;53177;52.648;1.214;2023-06-22T09:26:15;101376.44;;;24.62;61.13
66381;BME280;53177;52.648;1.214;2023-06-22T09:28:41;101372.22;;;25.09;58.52
66381;BME280;53177;52.648;1.214;2023-06-22T09:31:06;101376.06;;;25.30;59.28
66381;BME280;53177;52.648;1.214;2023-06-22T09:33:31;101376.38;;;25.26;55.36
66381;BME280;53177;52.648;1.214;2023-06-22T09:35:57;101378.63;;;25.32;57.97
66381;BME280;53177;52.648;1.214;2023-06-22T09:38:22;101373.34;;;25.30;56.48
66381;BME280;53177;52.648;1.214;2023-06-22T09:40:49;101372.56;;;25.53;55.47
66381;BME280;53177;52.648;1.214;2023-06-22T09:43:14;101379.56;;;25.19;55.08
66381;BME280;53177;52.648;1.214;2023-06-22T09:45:39;101381.31;;;24.45;56.47
66381;BME280;53177;52.648;1.214;2023-06-22T09:48:05;101370.16;;;24.24;58.64
66381;BME280;53177;52.648;1.214;2023-06-22T09:50:30;101368.72;;;23.79;58.36
66381;BME280;53177;52.648;1.214;2023-06-22T09:52:56;101374.00;;;23.81;62.61
66381;BME280;53177;52.648;1.214;2023-06-22T09:55:22;101373.66;;;23.46;60.01
66381;BME280;53177;52.648;1.214;2023-06-22T09:57:47;101372.97;;;23.56;62.42
66381;BME280;53177;52.648;1.214;2023-06-22T10:00:14;101378.88;;;23.75;62.77
66381;BME280;53177;52.648;1.214;2023-06-22T10:02:43;101375.59;;;23.70;62.51
66381;BME280;53177;52.648;1.214;2023-06-22T10:05:09;101366.59;;;23.57;59.00
66381;BME280;53177;52.648;1.214;2023-06-22T10:07:34;101368.78;;;23.65;64.41
66381;BME280;53177;52.648;1.214;2023-06-22T10:09:59;101366.75;;;23.68;61.47
66381;BME280;53177;52.648;1.214;2023-06-22T10:12:27;101368.53;;;23.95;63.54
66381;BME280;53177;52.648;1.214;2023-06-22T10:14:52;101372.03;;;24.09;63.90
66381;BME280;53177;52.648;1.214;2023-06-22T10:17:18;101371.13;;;24.23;62.50
66381;BME280;53177;52.648;1.214;2023-06-22T10:19:43;101365.50;;;24.26;61.41
66381;BME280;53177;52.648;1.214;2023-06-22T10:22:08;101363.41;;;23.77;59.78
66381;BME280;53177;52.648;1.214;2023-06-22T10:24:34;101362.03;;;23.85;61.35
66381;BME280;53177;52.648;1.214;2023-06-22T10:26:59;101360.75;;;23.90;59.15
66381;BME280;53177;52.648;1.214;2023-06-22T10:29:25;101353.22;;;24.08;59.49
66381;BME280;53177;52.648;1.214;2023-06-22T10:31:50;101353.31;;;23.94;61.82
66381;BME280;53177;52.648;1.214;2023-06-22T10:34:15;101350.47;;;23.95;59.26
66381;BME280;53177;52.648;1.214;2023-06-22T10:36:41;101351.06;;;23.47;59.92
66381;BME280;53177;52.648;1.214;2023-06-22T10:39:06;101343.53;;;23.52;60.44
66381;BME280;53177;52.648;1.214;2023-06-22T10:41:31;101354.66;;;23.47;60.24
66381;BME280;53177;52.648;1.214;2023-06-22T10:43:57;101353.84;;;23.59;60.21
66381;BME280;53177;52.648;1.214;2023-06-22T10:46:26;101362.44;;;23.52;59.75
66381;BME280;53177;52.648;1.214;2023-06-22T10:48:52;101367.25;;;23.61;58.05
66381;BME280;53177;52.648;1.214;2023-06-22T10:51:20;101351.03;;;24.00;57.53
66381;BME280;53177;52.648;1.214;2023-06-22T10:53:45;101358.34;;;24.25;60.62
66381;BME280;53177;52.648;1.214;2023-06-22T10:56:11;101356.00;;;24.46;60.11
66381;BME280;53177;52.648;1.214;2023-06-22T10:58:36;101350.34;;;24.36;57.87
66381;BME280;53177;52.648;1.214;2023-06-22T11:01:01;101350.72;;;24.57;57.92
66381;BME280;53177;52.648;1.214;2023-06-22T11:03:28;101361.53;;;24.57;57.29
66381;BME280;53177;52.648;1.214;2023-06-22T11:05:53;101361.72;;;24.79;57.95
66381;BME280;53177;52.648;1.214;2023-06-22T11:08:19;101360.66;;;24.56;54.78
66381;BME280;53177;52.648;1.214;2023-06-22T11:10:44;101350.47;;;24.72;56.75
66381;BME280;53177;52.648;1.214;2023-06-22T11:13:10;101353.59;;;24.54;57.20
66381;BME280;53177;52.648;1.214;2023-06-22T11:15:36;101360.00;;;24.78;58.03
66381;BME280;53177;52.648;1.214;2023-06-22T11:18:01;101356.84;;;24.59;55.95
66381;BME280;53177;52.648;1.214;2023-06-22T11:20:27;101361.28;;;24.22;55.54
66381;BME280;53177;52.648;1.214;2023-06-22T11:22:52;101356.31;;;24.29;56.67
66381;BME280;53177;52.648;1.214;2023-06-22T11:25:17;101359.00;;;24.54;59.00
66381;BME280;53177;52.648;1.214;2023-06-22T11:27:43;101354.38;;;24.56;56.85
66381;BME280;53177;52.648;1.214;2023-06-22T11:30:08;101348.84;;;24.32;56.63
66381;BME280;53177;52.648;1.214;2023-06-22T11:32:34;101351.78;;;24.16;57.01
66381;BME280;53177;52.648;1.214;2023-06-22T11:35:00;101348.34;;;24.00;57.36
66381;BME280;53177;52.648;1.214;2023-06-22T11:37:25;101347.59;;;24.11;57.47
66381;BME280;53177;52.648;1.214;2023-06-22T11:39:51;101347.47;;;24.00;56.39
66381;BME280;53177;52.648;1.214;2023-06-22T11:42:17;101346.91;;;23.82;59.31
66381;BME280;53177;52.648;1.214;2023-06-22T11:44:42;101344.81;;;23.73;57.50
66381;BME280;53177;52.648;1.214;2023-06-22T11:47:09;101340.78;;;23.66;57.66
66381;BME280;53177;52.648;1.214;2023-06-22T11:49:34;101341.56;;;23.68;57.28
66381;BME280;53177;52.648;1.214;2023-06-22T11:51:59;101333.91;;;23.74;57.61
66381;BME280;53177;52.648;1.214;2023-06-22T11:54:25;101335.91;;;23.98;54.58
66381;BME280;53177;52.648;1.214;2023-06-22T11:56:50;101327.22;;;24.32;53.53
66381;BME280;53177;52.648;1.214;2023-06-22T11:59:16;101325.03;;;24.12;58.78
66381;BME280;53177;52.648;1.214;2023-06-22T12:01:41;101325.75;;;24.01;61.17
66381;BME280;53177;52.648;1.214;2023-06-22T12:04:06;101326.28;;;23.94;62.76
66381;BME280;53177;52.648;1.214;2023-06-22T12:06:32;101323.66;;;23.80;62.62
66381;BME280;53177;52.648;1.214;2023-06-22T12:08:58;101323.53;;;23.68;60.97
66381;BME280;53177;52.648;1.214;2023-06-22T12:11:24;101323.47;;;23.56;59.93
66381;BME280;53177;52.648;1.214;2023-06-22T12:13:49;101324.28;;;23.44;63.10
66381;BME280;53177;52.648;1.214;2023-06-22T12:16:15;101321.16;;;23.23;64.85
66381;BME280;53177;52.648;1.214;2023-06-22T12:18:40;101325.00;;;23.19;66.09
66381;BME280;53177;52.648;1.214;2023-06-22T12:21:05;101328.63;;;23.05;66.29
66381;BME280;53177;52.648;1.214;2023-06-22T12:23:31;101333.81;;;23.08;67.06
66381;BME280;53177;52.648;1.214;2023-06-22T12:25:56;101327.16;;;23.00;67.52
66381;BME280;53177;52.648;1.214;2023-06-22T12:28:22;101328.25;;;22.97;67.39
66381;BME280;53177;52.648;1.214;2023-06-22T12:30:48;101331.31;;;23.05;67.46
66381;BME280;53177;52.648;1.214;2023-06-22T12:33:14;101328.97;;;23.13;66.36
66381;BME280;53177;52.648;1.214;2023-06-22T12:35:39;101328.41;;;23.08;66.54
66381;BME280;53177;52.648;1.214;2023-06-22T12:38:04;101325.22;;;23.16;65.72
66381;BME280;53177;52.648;1.214;2023-06-22T12:40:32;101326.09;;;23.02;64.21
66381;BME280;53177;52.648;1.214;2023-06-22T12:42:58;101325.63;;;22.96;64.88
66381;BME280;53177;52.648;1.214;2023-06-22T12:45:23;101321.91;;;22.98;64.68
66381;BME280;53177;52.648;1.214;2023-06-22T12:47:50;101329.03;;;22.85;65.06
66381;BME280;53177;52.648;1.214;2023-06-22T12:50:17;101323.13;;;22.93;65.55
66381;BME280;53177;52.648;1.214;2023-06-22T12:52:42;101323.50;;;23.01;65.40
66381;BME280;53177;52.648;1.214;2023-06-22T12:55:08;101319.53;;;23.06;64.00